Map

Track Data

SID SEASON NUMBER BASIN SUBBASIN NAME ISO_TIME NATURE LAT LON WMO_WIND WMO_PRES WMO_AGENCY TRACK_TYPE DIST2LAND LANDFALL IFLAG USA_AGENCY USA_ATCF_ID USA_LAT USA_LON USA_RECORD USA_STATUS USA_WIND USA_PRES USA_SSHS USA_R34_NE USA_R34_SE USA_R34_SW USA_R34_NW USA_R50_NE USA_R50_SE USA_R50_SW USA_R50_NW USA_R64_NE USA_R64_SE USA_R64_SW USA_R64_NW USA_POCI USA_ROCI USA_RMW USA_EYE TOKYO_LAT TOKYO_LON TOKYO_GRADE TOKYO_WIND TOKYO_PRES TOKYO_R50_DIR TOKYO_R50_LONG TOKYO_R50_SHORT TOKYO_R30_DIR TOKYO_R30_LONG TOKYO_R30_SHORT TOKYO_LAND CMA_LAT CMA_LON CMA_CAT CMA_WIND CMA_PRES HKO_LAT HKO_LON HKO_CAT HKO_WIND HKO_PRES NEWDELHI_LAT NEWDELHI_LON NEWDELHI_GRADE NEWDELHI_WIND NEWDELHI_PRES NEWDELHI_CI NEWDELHI_DP NEWDELHI_POCI REUNION_LAT REUNION_LON REUNION_TYPE REUNION_WIND REUNION_PRES REUNION_TNUM REUNION_CI REUNION_RMW REUNION_R34_NE REUNION_R34_SE REUNION_R34_SW REUNION_R34_NW REUNION_R50_NE REUNION_R50_SE REUNION_R50_SW REUNION_R50_NW REUNION_R64_NE REUNION_R64_SE REUNION_R64_SW REUNION_R64_NW BOM_LAT BOM_LON BOM_TYPE BOM_WIND BOM_PRES BOM_TNUM BOM_CI BOM_RMW BOM_R34_NE BOM_R34_SE BOM_R34_SW BOM_R34_NW BOM_R50_NE BOM_R50_SE BOM_R50_SW BOM_R50_NW BOM_R64_NE BOM_R64_SE BOM_R64_SW BOM_R64_NW BOM_ROCI BOM_POCI BOM_EYE BOM_POS_METHOD BOM_PRES_METHOD NADI_LAT NADI_LON NADI_CAT NADI_WIND NADI_PRES WELLINGTON_LAT WELLINGTON_LON WELLINGTON_WIND WELLINGTON_PRES DS824_LAT DS824_LON DS824_STAGE DS824_WIND DS824_PRES TD9636_LAT TD9636_LON TD9636_STAGE TD9636_WIND TD9636_PRES TD9635_LAT TD9635_LON TD9635_WIND TD9635_PRES TD9635_ROCI NEUMANN_LAT NEUMANN_LON NEUMANN_CLASS NEUMANN_WIND NEUMANN_PRES MLC_LAT MLC_LON MLC_CLASS MLC_WIND MLC_PRES USA_GUST BOM_GUST BOM_GUST_PER REUNION_GUST REUNION_GUST_PER USA_SEAHGT USA_SEARAD_NE USA_SEARAD_SE USA_SEARAD_SW USA_SEARAD_NW STORM_SPEED STORM_DIR
1984294N04163 1984 103 WP MM VANESSA 1984-10-20 00:00:00 NR 4.00000 162.500 main 1354 1354 __________O___ -1 4.00000 162.500 0 0 0
1984294N04163 1984 103 WP MM VANESSA 1984-10-20 03:00:00 NR 4.01045 162.512 main 1354 1354 __________P___ -1 4.01045 162.512 0 0 44
1984294N04163 1984 103 WP MM VANESSA 1984-10-20 06:00:00 NR 4.02825 162.518 main 1354 1354 __________P___ -1 4.02825 162.518 0 1 26
1984294N04163 1984 103 WP MM VANESSA 1984-10-20 09:00:00 NR 4.06071 162.512 main 1363 1363 __________P___ -1 4.06071 162.512 0 1 334
1984294N04163 1984 103 WP MM VANESSA 1984-10-20 12:00:00 NR 4.11520 162.489 main 1363 1363 __________P___ -1 4.11520 162.489 0 2 335
1984294N04163 1984 103 WP MM VANESSA 1984-10-20 15:00:00 NR 4.19903 162.442 main 1365 1365 __________P___ -1 4.19903 162.442 0 2 328
1984294N04163 1984 103 WP MM VANESSA 1984-10-20 18:00:00 NR 4.31956 162.366 main 1374 1368 __________P___ -1 4.31956 162.366 0 3 326
1984294N04163 1984 103 WP MM VANESSA 1984-10-20 21:00:00 NR 4.48411 162.253 main 1386 1379 __________P___ -1 4.48411 162.253 0 5 325
1984294N04163 1984 103 WP MM VANESSA 1984-10-21 00:00:00 NR 4.70000 162.100 main 1392 1392 __________O___ -1 4.70000 162.100 0 6 324
1984294N04163 1984 103 WP MM VANESSA 1984-10-21 03:00:00 NR 4.97106 161.900 main 1407 1402 __________P___ -1 4.97106 161.900 0 7 323
1984294N04163 1984 103 WP MM VANESSA 1984-10-21 06:00:00 NR 5.28715 161.651 main 1424 1419 __________P___ -1 5.28715 161.651 0 9 321
1984294N04163 1984 103 WP MM VANESSA 1984-10-21 09:00:00 NR 5.63466 161.351 main 1430 1430 __________P___ -1 5.63466 161.351 0 10 318
1984294N04163 1984 103 WP MM VANESSA 1984-10-21 12:00:00 NR 6.00000 161.000 main 1435 1435 __________O___ -1 6.00000 161.000 0 10 316
1984294N04163 1984 103 WP MM VANESSA 1984-10-21 15:00:00 NR 6.37664 160.641 main 1443 1443 __________P___ -1 6.37664 160.641 0 11 315
1984294N04163 1984 103 WP MM VANESSA 1984-10-21 18:00:00 NR 6.76458 160.227 main 1453 1447 __________P___ -1 6.76458 160.227 0 12 311
1984294N04163 1984 103 WP MM VANESSA 1984-10-21 21:00:00 NR 7.14523 159.750 main 1452 1438 __________P___ -1 7.14523 159.750 0 12 302
1984294N04163 1984 103 WP MM VANESSA 1984-10-22 00:00:00 TS 7.41667 159.167 main 1441 1424 O_O_______O___ jtwc_wp WP251984 7.50000 159.200 25 -1 7.00000 159.000 0 19 1002 7.50000 159.200 1 25 14 293
1984294N04163 1984 103 WP MM VANESSA 1984-10-22 03:00:00 TS 7.67624 158.477 main 1428 1407 P_P_______P___ WP251984 7.81025 158.498 25 -1 7.26274 158.250 0 19 1002 7.81598 158.580 1 25 15 290
1984294N04163 1984 103 WP MM VANESSA 1984-10-22 06:00:00 TS 7.92100 157.746 main 1402 1385 O_O_______P___ jtwc_wp WP251984 8.10000 157.800 25 -1 7.50000 157.500 0 19 1002 8.10251 157.890 1 25 15 288
1984294N04163 1984 103 WP MM VANESSA 1984-10-22 09:00:00 TS 8.14415 157.004 main 1385 1375 P_P_______P___ WP251984 8.35734 157.107 25 -1 7.71238 156.750 0 21 1001 8.36275 157.155 1 25 16 288
1984294N04163 1984 103 WP MM VANESSA 1984-10-22 12:00:00 TS 8.40769 156.246 1004 tokyo main 1375 1372 OOO_______O___ jtwc_wp WP251984 8.60000 156.400 25 -1 8.50000 156.000 2 1004 0 0 0 8.00000 156.000 1 23 1000 8.60000 156.400 1 25 16 292
1984294N04163 1984 103 WP MM VANESSA 1984-10-22 15:00:00 TS 8.73399 155.521 main 1375 1375 PPP_______P___ WP251984 8.86489 155.658 27 -1 8.74252 155.540 2 1003 0 0 8.50744 155.235 1 23 1000 8.82537 155.660 1 27 16 294
1984294N04163 1984 103 WP MM VANESSA 1984-10-22 18:00:00 TS 9.03241 154.796 1002 tokyo main 1380 1378 OOOO______P___ jtwc_wp WP251984 9.10000 154.900 30 -1 9.00000 155.000 2 1002 0 0 0 9.00000 154.500 1 23 1000 9.00000 154.500 TD 25 1002 9.02965 154.907 1 30 15 290
1984294N04163 1984 103 WP MM VANESSA 1984-10-22 21:00:00 TS 9.23616 154.088 main 1379 1377 PPPP______P___ WP251984 9.25739 154.142 32 -1 9.27252 154.330 2 1002 0 0 9.24486 153.820 1 26 999 9.13769 153.908 TD 25 1001 9.21909 154.151 1 32 14 285
1984294N04163 1984 103 WP MM VANESSA 1984-10-23 00:00:00 TS 9.40526 153.384 1002 tokyo main 1383 1379 OOOO______O___ jtwc_wp WP251984 9.40000 153.400 35 0 9.50000 153.600 2 1002 0 0 0 9.40000 153.200 1 29 998 9.30000 153.300 TD 25 1000 9.40000 153.400 2 35 14 284
1984294N04163 1984 103 WP MM VANESSA 1984-10-23 03:00:00 TS 9.57913 152.723 main 1392 1389 PPPP______P___ WP251984 9.59977 152.700 37 0 9.61476 152.915 2 999 0 0 9.59972 152.657 1 33 997 9.49988 152.665 TD 27 998 9.58154 152.676 2 38 14 285
1984294N04163 1984 103 WP MM VANESSA 1984-10-23 06:00:00 TS 9.75132 152.051 35 996 tokyo main 1406 1403 OOOO______P___ jtwc_wp WP251984 9.80000 152.000 40 0 9.70000 152.200 3 35 996 0 9 100 100 0 9.80000 152.100 2 38 996 9.70000 152.000 TD 30 997 9.75660 151.957 2 42 14 284
1984294N04163 1984 103 WP MM VANESSA 1984-10-23 09:00:00 TS 9.91711 151.327 main 1412 1404 PPPP______P___ WP251984 9.95738 151.257 45 0 9.83502 151.400 3 40 994 0 9 125 125 10.0074 151.437 2 43 994 9.85740 151.307 TD 35 995 9.92838 151.235 2 46 15 283
1984294N04163 1984 103 WP MM VANESSA 1984-10-23 12:00:00 TS 10.0800 150.580 45 992 tokyo main 1412 1404 OOOO______O___ jtwc_wp WP251984 10.1000 150.500 50 0 10.0000 150.600 3 45 992 0 9 150 150 0 10.2000 150.700 3 48 992 10.0000 150.600 TS 40 993 10.1000 150.500 2 50 15 283
1984294N04163 1984 103 WP MM VANESSA 1984-10-23 15:00:00 TS 10.2438 149.848 main 1403 1403 PPPP______P___ WP251984 10.2423 149.757 55 0 10.1996 149.907 3 45 991 0 9 137 137 10.3725 149.908 3 48 990 10.1423 149.915 TS 42 991 10.2622 149.751 2 55 15 283
1984294N04163 1984 103 WP MM VANESSA 1984-10-23 18:00:00 TS 10.4053 149.097 45 990 tokyo main 1413 1410 OOOO______P___ jtwc_wp WP251984 10.4000 149.000 60 0 10.4000 149.200 3 45 990 0 9 125 125 0 10.5000 149.100 3 48 988 10.3000 149.200 TS 45 989 10.4266 148.987 2 60 15 281
1984294N04163 1984 103 WP MM VANESSA 1984-10-23 21:00:00 TS 10.5469 148.311 main 1415 1415 PPPP______P___ WP251984 10.5849 148.207 65 1 10.5424 148.372 3 47 987 0 9 125 125 10.5197 148.350 3 53 986 10.4849 148.422 TS 50 987 10.6027 148.204 2 65 16 281
1984294N04163 1984 103 WP MM VANESSA 1984-10-24 00:00:00 TS 10.7200 147.500 50 985 tokyo main 1434 1434 OOOO______O___ jtwc_wp WP251984 10.8000 147.400 70 1 10.7000 147.500 4 50 985 0 9 125 125 0 10.6000 147.600 3 58 984 10.7000 147.600 STS 55 985 10.8000 147.400 3 70 17 285
1984294N04163 1984 103 WP MM VANESSA 1984-10-24 03:00:00 TS 10.9644 146.679 main 1467 1467 PPPP______P___ WP251984 11.0422 146.615 72 1 10.9124 146.635 4 55 985 0 9 137 137 10.8974 146.800 3 58 984 10.9423 146.765 STS 60 985 11.0279 146.579 3 72 17 288
1984294N04163 1984 103 WP MM VANESSA 1984-10-24 06:00:00 TS 11.2553 145.847 60 985 tokyo main 1504 1504 OOOO______P___ jtwc_wp WP251984 11.3000 145.800 75 1 11.2000 145.800 4 60 985 9 50 50 9 150 150 0 11.3000 146.000 3 58 984 11.2000 145.900 T 65 985 11.2767 145.737 3 75 17 291
1984294N04163 1984 103 WP MM VANESSA 1984-10-24 09:00:00 TS 11.5790 145.036 main 1545 1545 PPPP______P___ WP251984 11.5499 144.915 77 1 11.6143 145.080 4 65 980 9 87 87 9 162 162 11.7367 145.303 3 58 984 11.4573 145.007 T 67 982 11.5371 144.876 3 77 18 291
1984294N04163 1984 103 WP MM VANESSA 1984-10-24 12:00:00 TS 11.8800 144.180 70 975 tokyo main 1590 1590 OOOO______O___ jtwc_wp WP251984 11.8000 144.000 80 1 12.0000 144.300 5 70 975 9 125 125 9 175 175 0 12.1000 144.500 3 58 984 11.7000 144.100 T 70 980 11.8000 144.000 4 80 19 286
1984294N04163 1984 103 WP MM VANESSA 1984-10-24 15:00:00 TS 12.0766 143.206 main 1631 1611 PPPP______P___ WP251984 12.0497 143.100 82 1 12.1805 143.257 5 75 972 9 137 137 9 187 187 12.2156 143.372 3 63 977 11.8997 143.200 T 75 975 12.0374 143.102 4 83 20 281
1984294N04163 1984 103 WP MM VANESSA 1984-10-24 18:00:00 TS 12.2554 142.218 80 970 tokyo main 1618 1603 OOOO______P___ jtwc_wp WP251984 12.3000 142.200 85 2 12.3000 142.200 5 80 970 9 150 150 9 200 200 0 12.3000 142.200 4 68 970 12.1000 142.300 T 80 970 12.2771 142.192 4 87 19 283
1984294N04163 1984 103 WP MM VANESSA 1984-10-24 21:00:00 TS 12.4918 141.318 main 1605 1595 PPPP______P___ WP251984 12.5423 141.292 90 2 12.4768 141.377 5 80 967 9 150 150 9 225 225 12.5845 141.240 4 72 967 12.3273 141.392 T 85 962 12.5281 141.286 4 91 18 286
1984294N04163 1984 103 WP MM VANESSA 1984-10-25 00:00:00 TS 12.7600 140.460 80 965 tokyo main 1606 1529 OOOO______O___ jtwc_wp WP251984 12.8000 140.400 95 2 12.7000 140.600 5 80 965 9 150 150 9 250 250 0 12.9000 140.400 4 77 965 12.6000 140.500 ST 90 955 12.8000 140.400 4 95 18 288
1984294N04163 1984 103 WP MM VANESSA 1984-10-25 03:00:00 TS 13.0331 139.611 main 1518 1437 PPPP______P___ WP251984 13.0847 139.535 102 3 12.9775 139.700 5 90 950 9 162 162 9 275 275 13.0769 139.642 4 82 950 12.9197 139.635 ST 95 945 13.1065 139.545 4 101 17 290
1984294N04163 1984 103 WP MM VANESSA 1984-10-25 06:00:00 TS 13.3468 138.782 100 935 tokyo main 1437 1359 OOOO______P___ jtwc_wp WP251984 13.4000 138.700 110 3 13.3000 138.800 5 100 935 9 175 175 9 300 300 0 13.3000 138.900 5 87 935 13.3000 138.800 SuperT 100 935 13.4338 138.712 4 107 17 293
1984294N04163 1984 103 WP MM VANESSA 1984-10-25 09:00:00 TS 13.7246 137.965 main 1359 1285 PPPP______P___ WP251984 13.7422 137.892 115 4 13.6345 137.992 5 110 922 9 187 187 9 350 350 13.7350 138.050 5 96 922 13.7422 137.992 SuperT 110 922 13.7691 137.898 4 113 18 296
1984294N04163 1984 103 WP MM VANESSA 1984-10-25 12:00:00 TS 14.1200 137.160 120 910 tokyo main 1285 1205 OOOO______O___ jtwc_wp WP251984 14.1000 137.100 120 4 14.0000 137.200 5 120 910 9 200 200 9 400 400 0 14.2000 137.200 6 106 910 14.2000 137.200 SuperT 120 910 14.1000 137.100 4 120 17 296
1984294N04163 1984 103 WP MM VANESSA 1984-10-25 15:00:00 TS 14.4888 136.348 main 1196 1130 PPPP______P___ WP251984 14.4648 136.292 125 4 14.4000 136.335 5 120 905 9 200 200 9 425 425 14.5145 136.442 6 111 905 14.6373 136.393 SuperT 120 905 14.4272 136.278 4 125 17 295
1984294N04163 1984 103 WP MM VANESSA 1984-10-25 18:00:00 TS 14.8289 135.555 120 900 tokyo main 1130 1056 OOOO______P___ jtwc_wp WP251984 14.8000 135.500 130 4 14.8000 135.500 5 120 900 9 200 200 9 450 450 0 14.8000 135.700 6 116 900 15.0000 135.600 SuperT 120 900 14.7447 135.475 4 130 16 293
1984294N04163 1984 103 WP MM VANESSA 1984-10-25 21:00:00 TS 15.1388 134.787 main 1056 995 PPPP______P___ WP251984 15.0723 134.727 135 4 15.1796 134.777 5 120 895 9 225 225 9 475 475 15.1649 134.893 6 121 895 15.2373 134.827 SuperT 125 895 15.0399 134.710 4 135 16 292
1984294N04163 1984 103 WP MM VANESSA 1984-10-26 00:00:00 TS 15.4000 134.060 120 890 tokyo main 995 934 OOOO______O___ jtwc_wp WP251984 15.3000 134.000 140 5 15.5000 134.100 5 120 890 9 250 250 9 500 500 0 15.5000 134.100 6 126 890 15.4000 134.100 SuperT 130 890 15.3000 134.000 4 140 15 289
1984294N04163 1984 103 WP MM VANESSA 1984-10-26 03:00:00 TS 15.6104 133.356 main 934 880 PPPP______P___ WP251984 15.5148 133.312 145 5 15.7525 133.377 5 120 890 9 250 250 9 500 500 15.7374 133.347 6 126 887 15.5573 133.412 SuperT 130 887 15.4899 133.330 4 143 13 286
1984294N04163 1984 103 WP MM VANESSA 1984-10-26 06:00:00 TS 15.7698 132.724 120 890 tokyo main 875 833 OOOO______P___ jtwc_wp WP251984 15.7000 132.700 150 5 15.9000 132.700 5 120 890 9 250 250 9 500 500 0 15.9000 132.700 6 126 885 15.7000 132.800 SuperT 130 885 15.6492 132.721 4 147 12 283
1984294N04163 1984 103 WP MM VANESSA 1984-10-26 09:00:00 TS 15.8802 132.175 main 833 792 PPPP______P___ WP251984 15.8423 132.162 152 5 15.8999 132.082 5 120 885 9 250 250 9 500 500 16.0072 132.197 6 126 882 15.8424 132.255 SuperT 130 882 15.8089 132.177 4 151 10 283
1984294N04163 1984 103 WP MM VANESSA 1984-10-26 12:00:00 TS 16.0000 131.720 120 880 tokyo main 792 771 OOOO______O___ jtwc_wp WP251984 16.0000 131.700 155 5 15.9000 131.600 5 120 880 9 250 250 9 500 500 0 16.1000 131.800 6 126 879 16.0000 131.800 SuperT 130 879 16.0000 131.700 4 155 9 290
1984294N04163 1984 103 WP MM VANESSA 1984-10-26 15:00:00 TS 16.1748 131.345 main 769 756 PPPP______P___ WP251984 16.2199 131.270 152 5 16.0322 131.327 5 120 880 9 250 225 9 500 450 16.2124 131.435 6 126 882 16.1623 131.427 SuperT 130 882 16.2472 131.265 4 152 8 302
1984294N04163 1984 103 WP MM VANESSA 1984-10-26 18:00:00 TS 16.4264 131.019 120 880 tokyo main 756 745 OOOO______P___ jtwc_wp WP251984 16.5000 130.900 150 5 16.3000 131.100 5 120 880 8 250 200 8 500 400 0 16.4000 131.100 6 126 885 16.4000 131.100 SuperT 130 885 16.5318 130.895 4 150 9 313
1984294N04163 1984 103 WP MM VANESSA 1984-10-26 21:00:00 TS 16.7776 130.668 main 749 730 PPPP______P___ WP251984 16.8349 130.577 147 5 16.7202 130.700 5 120 887 8 250 200 8 500 400 16.7125 130.743 6 126 890 16.7700 130.743 SuperT 130 890 16.8505 130.577 4 147 10 319
1984294N04163 1984 103 WP MM VANESSA 1984-10-27 00:00:00 TS 17.1800 130.340 120 895 tokyo main 732 725 OOOO______O___ jtwc_wp WP251984 17.2000 130.300 145 5 17.2000 130.300 5 120 895 8 250 200 8 500 400 0 17.1000 130.400 6 126 895 17.2000 130.400 SuperT 130 895 17.2000 130.300 4 145 10 323
1984294N04163 1984 103 WP MM VANESSA 1984-10-27 03:00:00 TS 17.5626 130.043 main 728 726 PPPP______P___ WP251984 17.5350 130.035 142 5 17.6149 130.027 5 120 895 8 250 200 8 500 400 17.4925 130.070 6 126 897 17.6074 130.085 SuperT 125 897 17.5630 129.999 4 142 9 326
1984294N04163 1984 103 WP MM VANESSA 1984-10-27 06:00:00 TS 17.9510 129.788 120 895 tokyo main 737 729 OOOO______P___ jtwc_wp WP251984 17.9000 129.800 140 5 18.0000 129.800 5 120 895 8 250 200 8 500 400 0 17.9000 129.800 6 126 900 18.0000 129.800 SuperT 120 900 17.9549 129.738 4 140 9 329
1984294N04163 1984 103 WP MM VANESSA 1984-10-27 09:00:00 TS 18.3334 129.553 main 742 741 PPPP______P___ WP251984 18.3350 129.570 137 5 18.3350 129.527 5 115 900 8 225 175 8 475 375 18.2849 129.620 6 121 902 18.3425 129.512 SuperT 120 902 18.3693 129.533 4 137 9 334
1984294N04163 1984 103 WP MM VANESSA 1984-10-27 12:00:00 TS 18.7400 129.380 110 905 tokyo main 749 739 OOOO______O___ jtwc_wp WP251984 18.8000 129.400 135 4 18.7000 129.300 5 110 905 8 200 150 1 450 350 0 18.7000 129.500 6 116 905 18.7000 129.300 SuperT 120 905 18.8000 129.400 4 135 9 342
1984294N04163 1984 103 WP MM VANESSA 1984-10-27 15:00:00 TS 19.2056 129.261 main 742 733 PPPP______P___ WP251984 19.2500 129.305 135 4 19.1924 129.140 5 110 907 8 200 150 1 450 350 19.2000 129.370 6 116 907 19.1424 129.197 SuperT 117 907 19.2432 129.293 4 133 10 352
1984294N04163 1984 103 WP MM VANESSA 1984-10-27 18:00:00 TS 19.6798 129.233 110 910 tokyo main 739 739 OOOO______P___ jtwc_wp WP251984 19.7000 129.300 135 4 19.7000 129.100 5 110 910 8 200 150 1 450 350 0 19.7000 129.300 6 116 910 19.6000 129.200 SuperT 115 910 19.6992 129.263 4 132 9 1
1984294N04163 1984 103 WP MM VANESSA 1984-10-27 21:00:00 TS 20.1085 129.272 main 758 758 PPPP______P___ WP251984 20.1574 129.348 132 4 20.1073 129.168 5 110 910 8 200 150 1 450 350 20.1224 129.283 6 116 910 19.9998 129.233 SuperT 112 912 20.1556 129.327 4 131 9 13
1984294N04163 1984 103 WP MM VANESSA 1984-10-28 00:00:00 TS 20.5200 129.440 110 910 tokyo main 780 780 OOOO______O___ jtwc_wp WP251984 20.6000 129.500 130 4 20.5000 129.400 5 110 910 8 200 150 1 450 350 0 20.5000 129.400 6 116 910 20.4000 129.400 SuperT 110 915 20.6000 129.500 4 130 9 28
1984294N04163 1984 103 WP MM VANESSA 1984-10-28 03:00:00 TS 20.9262 129.741 main 823 823 PPPP______P___ WP251984 21.0074 129.740 127 4 20.9352 129.805 5 110 915 8 225 200 1 450 400 20.8275 129.683 6 116 912 20.8350 129.740 SuperT 107 917 21.0258 129.735 4 127 11 39
1984294N04163 1984 103 WP MM VANESSA 1984-10-28 06:00:00 TS 21.3472 130.157 110 920 tokyo main 887 887 OOOO______P___ jtwc_wp WP251984 21.4000 130.100 125 4 21.4000 130.300 5 110 920 9 250 250 9 450 450 0 21.2000 130.100 6 116 915 21.3000 130.200 SuperT 105 920 21.4362 130.083 4 125 12 42
1984294N04163 1984 103 WP MM VANESSA 1984-10-28 09:00:00 TS 21.8230 130.603 main 938 938 PPPP______P___ WP251984 21.8074 130.548 122 4 21.9145 130.713 5 105 925 9 250 250 9 450 450 21.7573 130.555 6 116 921 21.8073 130.663 SuperT 102 925 21.8285 130.539 4 122 13 44
1984294N04163 1984 103 WP MM VANESSA 1984-10-28 12:00:00 TS 22.2800 131.140 100 930 tokyo main 969 942 OOOO______O___ jtwc_wp WP251984 22.2000 131.100 120 4 22.4000 131.200 5 100 930 9 250 250 9 450 450 0 22.3000 131.100 6 116 928 22.3000 131.200 SuperT 100 930 22.2000 131.100 4 120 14 52
1984294N04163 1984 103 WP MM VANESSA 1984-10-28 15:00:00 TS 22.6527 131.752 main 933 909 PPPP______P___ WP251984 22.5646 131.698 117 4 22.7874 131.848 5 100 925 9 225 225 9 450 450 22.6372 131.706 6 116 927 22.7446 131.798 SuperT 100 927 22.5297 131.711 4 117 14 61
1984294N04163 1984 103 WP MM VANESSA 1984-10-28 18:00:00 TS 22.9682 132.465 100 920 tokyo main 910 900 OOOO______P___ jtwc_wp WP251984 22.9000 132.400 115 4 23.1000 132.600 5 100 920 9 200 200 9 450 450 0 22.9000 132.400 6 116 926 23.1000 132.500 SuperT 100 925 22.8412 132.423 4 115 15 67
1984294N04163 1984 103 WP MM VANESSA 1984-10-28 21:00:00 TS 23.2501 133.249 main 894 894 PPPP______P___ WP251984 23.1997 133.206 112 3 23.3644 133.363 5 100 922 9 200 200 9 450 450 23.2069 133.148 6 116 925 23.3222 133.306 SuperT 100 925 23.1571 133.224 4 112 16 70
1984294N04163 1984 103 WP MM VANESSA 1984-10-29 00:00:00 TS 23.5200 134.120 100 925 tokyo main 902 899 OOOO______O___ jtwc_wp WP251984 23.5000 134.100 110 3 23.6000 134.200 5 100 925 9 200 200 9 450 450 0 23.5000 134.000 6 116 924 23.5000 134.200 SuperT 100 925 23.5000 134.100 4 110 17 72
1984294N04163 1984 103 WP MM VANESSA 1984-10-29 03:00:00 TS 23.7744 135.051 main 913 913 PPPP______P___ WP251984 23.8194 135.021 110 3 23.8048 135.129 5 100 925 9 200 200 9 450 450 23.7124 134.971 6 111 927 23.6972 135.136 SuperT 100 927 23.8380 134.997 4 108 18 72
1984294N04163 1984 103 WP MM VANESSA 1984-10-29 06:00:00 TS 24.1025 136.033 100 925 tokyo main 930 930 OOOO______P___ jtwc_wp WP251984 24.2000 136.000 110 3 24.1000 136.100 5 100 925 9 200 200 9 450 450 0 24.0000 136.000 6 106 930 24.0000 136.100 SuperT 100 930 24.2127 135.966 4 107 20 66
1984294N04163 1984 103 WP MM VANESSA 1984-10-29 09:00:00 TS 24.5786 137.019 main 936 936 PPPP______P___ WP251984 24.6544 137.028 107 3 24.5968 137.043 5 100 930 9 200 200 9 450 450 24.4889 136.978 6 96 935 24.4968 137.043 SuperT 95 935 24.6559 137.002 4 106 21 60
1984294N04163 1984 103 WP MM VANESSA 1984-10-29 12:00:00 TS 25.1600 138.040 100 935 tokyo main 939 909 OOOO______O___ jtwc_wp WP251984 25.2000 138.100 105 3 25.2000 138.000 5 100 935 9 200 200 9 450 450 0 25.1000 138.000 5 87 940 25.1000 138.000 ST 90 940 25.2000 138.100 4 105 22 58
1984294N04163 1984 103 WP MM VANESSA 1984-10-29 15:00:00 TS 25.7334 139.050 main 913 883 PPPP______P___ WP251984 25.7885 139.158 100 3 25.7379 138.929 5 95 937 9 187 187 9 425 425 25.6885 139.086 5 82 945 25.6305 138.929 ST 87 945 25.8215 139.147 4 98 23 57
1984294N04163 1984 103 WP MM VANESSA 1984-10-29 18:00:00 TS 26.4298 140.174 90 940 tokyo main 888 859 OOOO______P___ jtwc_wp WP251984 26.5000 140.300 95 2 26.4000 140.000 5 90 940 9 175 175 9 400 400 0 26.4000 140.300 4 77 950 26.3000 140.000 ST 85 950 26.5488 140.272 4 92 27 54
1984294N04163 1984 103 WP MM VANESSA 1984-10-29 21:00:00 TS 27.2893 141.472 main 853 796 PPPP______P___ WP251984 27.3527 141.548 87 2 27.2431 141.312 5 85 950 9 175 175 9 400 400 27.2583 141.657 4 72 956 27.2155 141.311 ST 82 955 27.3771 141.535 4 86 31 53
1984294N04163 1984 103 WP MM VANESSA 1984-10-30 00:00:00 TS 28.3000 143.000 80 960 tokyo main 792 762 OOOO______O___ jtwc_wp WP251984 28.3000 143.000 80 1 28.3000 142.900 5 80 960 9 175 175 9 400 400 0 28.3000 143.200 4 68 962 28.3000 142.900 T 80 960 28.3000 143.000 4 80 36 54
1984294N04163 1984 103 WP MM VANESSA 1984-10-30 03:00:00 TS 29.3925 144.763 main 766 762 PPPP______P___ WP251984 29.2588 144.715 75 1 29.6217 144.749 5 77 962 9 162 162 9 375 375 29.4863 144.871 4 63 963 29.4268 144.755 T 77 965 29.1020 144.703 4 77 40 55
1984294N04163 1984 103 WP MM VANESSA 1984-10-30 06:00:00 TS 30.5538 146.747 75 965 tokyo main 779 779 OOOO______P___ jtwc_wp WP251984 30.2000 146.600 70 1 30.9000 146.800 5 75 965 9 150 150 9 350 350 0 30.8000 146.800 3 58 965 30.6000 146.800 T 75 970 30.0035 146.624 4 75 42 58
1984294N04163 1984 103 WP MM VANESSA 1984-10-30 09:00:00 TS 31.6414 148.870 main 868 868 _PPP______P___ WP251984 -1 31.6275 148.839 5 72 970 9 150 150 9 350 350 32.1509 149.083 3 58 970 31.6850 148.830 T 72 972 31.1022 148.729 4 72 44 58
1984294N04163 1984 103 WP MM VANESSA 1984-10-30 12:00:00 MX 32.8467 151.133 70 975 tokyo main 989 989 _OOO______O___ -1 32.5000 151.000 5 70 975 9 150 150 9 350 350 0 33.5000 151.500 9 58 975 32.9000 151.000 T 70 975 32.5000 151.000 4 70 47 55
1984294N04163 1984 103 WP MM VANESSA 1984-10-30 15:00:00 MX 34.3328 153.484 main 1154 1154 _PPP______P___ -1 34.0652 153.372 5 975 9 9 34.6417 153.680 9 58 975 34.3823 153.401 T 70 970 34.2667 153.442 4 52 51
1984294N04163 1984 103 WP MM VANESSA 1984-10-30 18:00:00 ET 36.0883 156.022 975 tokyo main 1180 1122 _OOO______P___ -1 36.0000 156.000 6 975 0 0 0 36.0000 156.000 9 58 975 36.0000 156.000 T 70 965 36.3238 156.080 4 57 49
1984294N04163 1984 103 WP MM VANESSA 1984-10-30 21:00:00 ET 38.0813 158.864 main 1126 1117 _PP_______P___ -1 37.9558 158.865 6 970 0 0 37.8673 158.792 9 58 975 T 38.5463 158.934 4 62 49
1984294N04163 1984 103 WP MM VANESSA 1984-10-31 00:00:00 ET 40.1333 162.000 966 tokyo main 1149 1148 _OO_______O___ -1 40.0000 162.000 6 966 0 0 0 40.0000 162.000 9 58 975 40.8000 162.000 5 65 51
1984294N04163 1984 103 WP MM VANESSA 1984-10-31 03:00:00 ET 42.2257 165.471 main 1151 1145 _P____________ -1 42.2257 165.471 6 967 0 0 9 5 65 53
1984294N04163 1984 103 WP MM VANESSA 1984-10-31 06:00:00 ET 44.0000 169.000 968 tokyo main 1177 1177 _O____________ -1 44.0000 169.000 6 968 0 0 0 5 53 62
1984294N04163 1984 103 WP MM VANESSA 1984-10-31 09:00:00 ET 44.7028 172.045 main 1269 1269 _P____________ -1 44.7028 172.045 6 970 0 0 5 44 77
1984294N04163 1984 103 WP MM VANESSA 1984-10-31 12:00:00 ET 45.0000 175.000 972 tokyo main 1401 1253 _O____________ -1 45.0000 175.000 6 972 0 0 0 45 80
1984294N04163 1984 103 WP MM VANESSA 1984-10-31 15:00:00 ET 45.4571 178.340 main 1234 1015 _P____________ -1 45.4571 178.340 6 974 0 0 50 78
1984294N04163 1984 103 EP CP VANESSA 1984-10-31 18:00:00 ET 46.0000 182.000 main 1005 _O____________ -1 46.0000 182.000 6 976 0 0 0 52 78

Digital Typhoon Data and Search

About IBTrACS Database

This database is a web-friendly format of International Best Track Archive for Climate Stewardship (IBTrACS), a global best track data archive curated by NOAA dating back to 1842.

Updated: 2021-10-21